Portada
METAR-TAF:

METAR-TAF

Aeroports :

Marsa Alam, Egipte

latitud: 25-33-25N, longitud: 34-35-01E, altitud: 77 m

METAR: manca

Hora: 23:53 (21:53 UTC)

Pronòstic

L'informe es va fer fa 4 hores i 53 minuts, a les 17:00 UTC
Pronòstic vàlid del 30 a les 18 UTC al 01 a les 24 UTC
Vent 12 kt del Nord/Nord-Oest
Visibilitat 10 km o més
sense núvols per sota de 1500 mi sense presència de cumulonimbus.

TAF: HEMA 301700Z 3018/0124 33012KT CAVOK

Observacions i pronòstics meteorològics de més de 4000 aeroports (METAR i TAF).

Les estacions disponibles són els punts grocs i vermells al mapa.

Posi el ratolí al punt desitjat per veure el nom de l'estació.

Feu clic per veure les observacions i els pronòstics meteorològics.

Per canviar el mapa: feu clic els botons verds amb una creu de color negre per apropar; al botó verd amb un guió per allunyar la imatge; o en les fletxes verdes per a mapes adjacents.


METAR-TAF: